Rio, IL (61472)

2:16 PM CDT on September 21, 2014 (GMT -0500)
East Burch St | Change Station
CLOSE
Current Station
Personal Weather Station
Location: Wataga, IL
Elevation: 840 ft
Nearby Weather Stations

Elev 840 ft 41.03 °N, 90.28 °W | Updated 7 seconds ago

Overcast
Overcast
64.8 °F
Feels Like 64.8 °F
N
2.0
Wind Variable Wind from NNW
Gusts 6.0 mph

Today
High -- | Low -- °F
--% Chance of Precip.
Yesterday
High -- | Low -- °F
Precip. -- in
6:48 AM 7:00 PM
Waning Crescent, 6% visible
Pressure 30.06 in
Visibility 10.0 miles
Clouds Overcast 3700 ft
Dew Point 54 °F
Humidity 67%
Rainfall 0.00 in
Snow Depth Not available.
UV 2 out of 12
Pollen 5.80 out of 12
Ozone Good
PM2.5 Good
Flu Activity Not available.
METAR KGBG 211855Z AUTO 31011G16KT 10SM OVC037 18/11 A3006 RMK AO2 T01790113

More Conditions Fewer Conditions

Pressure 30.06 in
Visibility 10.0 miles
Clouds Overcast 3700 ft
Dew Point 54 °F
Humidity 67%
Rainfall 0.00 in
Snow Depth Not available.
UV 2 out of 12
Pollen 5.80 out of 12
Ozone Good
PM2.5 Good
Flu Activity Not available.
METAR KGBG 211855Z AUTO 31011G16KT 10SM OVC037 18/11 A3006 RMK AO2 T01790113

More Conditions Fewer Conditions

10-Day Weather Forecast

Almanac

Astronomy

Sep. 21, 2014 Rise Set
Actual Time 6:48 AM CDT 7:00 PM CDT
Civil Twilight 6:20 AM CDT 7:27 PM CDT
Nautical Twilight 5:48 AM CDT 8:00 PM CDT
Astronomical Twilight 5:15 AM CDT 8:32 PM CDT
Moon 4:20 AM CDT 5:37 PM CDT
Length of Visible Light 13h 07m
Length of Day
12h 12m
Tomorrow will be 2m 42s shorter.
Waning Crescent, 6% of the Moon is Illuminated
Today
Waning Crescent
Sep 24
New
Oct 1
First Quarter
Oct 8
Full
Oct 15
Last Quarter

Today's Extremes

State Highs State Lows

Community

WunderPhotos

Upload Photos

1,755,226 photos uploaded!

Nearby

Air Quality

  Air Quality AQ Index Pollutant
Yesterday Moderate
PM2.5
Yesterday Good
OZONE
Current Good
PM2.5
Current Good
OZONE
Sunday Good
PM2.5
Monday Good
PM2.5
Tuesday Good
PM2.5

Snow Depth

Station Depth Elevation
No new snow has been reported.

Earthquake Activity

City Distance Mag. Time & Date
No recent earthquake activity has been reported nearby.
Minimum magnitude displayed is 2.5.

Coastal Water Temperatures

Place Temperature
No Stations Reporting

Nearby Weather Stations